createdAt,value
2017-11-28T00:00:06.115Z,89.09
2017-11-28T00:01:17.039Z,89.09
2017-11-28T00:02:27.417Z,89.09
2017-11-28T00:03:37.728Z,89.19
2017-11-28T00:04:48.019Z,89.19
2017-11-28T00:05:58.552Z,89.19
2017-11-28T00:07:09.043Z,89.19
2017-11-28T00:08:19.437Z,89.09
2017-11-28T00:09:29.409Z,89.19
2017-11-28T00:10:39.729Z,89.28
2017-11-28T00:11:50.057Z,89.19
2017-11-28T00:13:00.335Z,88.81
2017-11-28T00:14:10.863Z,89.28
2017-11-28T00:15:21.216Z,89
2017-11-28T00:16:31.507Z,89.09
2017-11-28T00:17:41.531Z,89.09
2017-11-28T00:18:51.939Z,89.09
2017-11-28T00:20:02.255Z,89.09
2017-11-28T00:21:12.591Z,89.19
2017-11-28T00:22:22.654Z,89.09
2017-11-28T00:23:33.124Z,88.9
2017-11-28T00:24:43.407Z,89
2017-11-28T00:25:53.713Z,89
2017-11-28T00:27:04.087Z,89
2017-11-28T00:28:14.698Z,89.28
2017-11-28T00:29:24.987Z,89.57
2017-11-28T00:30:35.494Z,89
2017-11-28T00:31:45.787Z,89.38
2017-11-28T00:32:56.092Z,89.38
2017-11-28T00:34:06.229Z,89.09
2017-11-28T00:35:16.443Z,89.47
2017-11-28T00:36:26.976Z,89.47
2017-11-28T00:38:09.561Z,89.28
2017-11-28T00:39:20.100Z,89.57
2017-11-28T00:40:30.594Z,89.67
2017-11-28T00:41:40.842Z,89.47
2017-11-28T00:42:51.541Z,89.28
2017-11-28T00:44:01.596Z,89.57
2017-11-28T00:45:12.004Z,89.67
2017-11-28T00:46:22.538Z,89.38
2017-11-28T00:47:32.855Z,89.09
2017-11-28T00:48:43.072Z,89.57
2017-11-28T00:49:54.831Z,89.57
2017-11-28T00:51:04.801Z,89.57
2017-11-28T00:52:15.197Z,89.57
2017-11-28T00:53:25.730Z,89.67
2017-11-28T00:54:36.256Z,89.28
2017-11-28T00:55:46.580Z,89.57
2017-11-28T00:56:56.870Z,89.47
2017-11-28T00:58:07.328Z,89
2017-11-28T00:59:17.785Z,89.19
2017-11-28T01:00:28.048Z,89.09
2017-11-28T01:01:38.373Z,89.28
2017-11-28T01:02:48.661Z,89.28
2017-11-28T01:03:59.157Z,89.19
2017-11-28T01:05:09.163Z,89.28
2017-11-28T01:06:19.383Z,89.28
2017-11-28T01:07:29.927Z,89.28
2017-11-28T01:08:40.444Z,89.28
2017-11-28T01:09:50.875Z,89.19
2017-11-28T01:11:01.154Z,89.28
2017-11-28T01:12:11.671Z,88.9
2017-11-28T01:13:22.093Z,88.9
2017-11-28T01:14:32.804Z,88.81
2017-11-28T01:15:43.173Z,89.09
2017-11-28T01:16:53.720Z,89.09
2017-11-28T01:18:04.400Z,89.09
2017-11-28T01:19:14.923Z,89
2017-11-28T01:20:25.232Z,88.9
2017-11-28T01:21:35.723Z,89.09
2017-11-28T01:22:45.984Z,89.09
2017-11-28T01:23:56.062Z,89.19
2017-11-28T01:25:07.046Z,88.81
2017-11-28T01:26:17.031Z,89.09
2017-11-28T01:27:27.342Z,89.19
2017-11-28T01:28:38.057Z,89.38
2017-11-28T01:29:48.279Z,89.19
2017-11-28T01:30:58.545Z,89.19
2017-11-28T01:32:09.836Z,89
2017-11-28T01:33:20.550Z,89.57
2017-11-28T01:34:30.953Z,89.47
2017-11-28T01:35:41.519Z,89.57
2017-11-28T01:36:52.046Z,89.47
2017-11-28T01:38:03.150Z,89.57
2017-11-28T01:39:14.035Z,89.19
2017-11-28T01:40:24.393Z,89.28
2017-11-28T01:41:34.687Z,89.86
2017-11-28T01:42:44.966Z,89.57
2017-11-28T01:43:55.524Z,89.76
2017-11-28T01:45:05.886Z,90.05
2017-11-28T01:46:16.478Z,89.76
2017-11-28T01:47:26.783Z,89.76
2017-11-28T01:48:37.267Z,89.57
2017-11-28T01:49:47.533Z,89.57
2017-11-28T01:50:58.176Z,90.23
2017-11-28T01:52:08.608Z,89.95
2017-11-28T01:53:19.070Z,89.86
2017-11-28T01:54:29.336Z,89.95
2017-11-28T01:55:39.730Z,90.14
2017-11-28T01:56:50.280Z,90.8
2017-11-28T01:58:00.798Z,90.71
2017-11-28T01:59:11.247Z,90.71
2017-11-28T02:00:21.497Z,90.71
2017-11-28T02:01:33.453Z,90.33
2017-11-28T02:02:43.805Z,90.9
2017-11-28T02:03:54.373Z,90.99
2017-11-28T02:05:04.936Z,91.09
2017-11-28T02:06:15.459Z,90.99
2017-11-28T02:07:25.781Z,90.9
2017-11-28T02:08:36.562Z,90.8
2017-11-28T02:09:47.091Z,91.47
2017-11-28T02:10:57.366Z,91.56
2017-11-28T02:12:07.406Z,91.66
2017-11-28T02:13:17.721Z,91.47
2017-11-28T02:14:28.215Z,91.28
2017-11-28T02:15:38.534Z,91.85
2017-11-28T02:16:48.175Z,91.85
2017-11-28T02:17:58.467Z,92.04
2017-11-28T02:19:08.804Z,91.75
2017-11-28T02:20:18.876Z,91.75
2017-11-28T02:21:28.782Z,92.42
2017-11-28T02:22:38.883Z,92.42
2017-11-28T02:23:49.120Z,91.85
2017-11-28T02:24:59.452Z,92.32
2017-11-28T02:26:09.721Z,92.32
2017-11-28T02:27:20.058Z,92.23
2017-11-28T02:28:30.405Z,92.61
2017-11-28T02:29:40.701Z,92.71
2017-11-28T02:30:51.007Z,92.71
2017-11-28T02:32:01.047Z,92.32
2017-11-28T02:33:11.554Z,92.8
2017-11-28T02:34:21.712Z,92.51
2017-11-28T02:35:31.990Z,93.37
2017-11-28T02:36:42.480Z,93.18
2017-11-28T02:37:52.502Z,93.18
2017-11-28T02:39:02.878Z,93.18
2017-11-28T02:40:13.344Z,92.99
2017-11-28T02:41:23.655Z,92.8
2017-11-28T02:42:33.972Z,92.9
2017-11-28T02:43:44.375Z,93.84
2017-11-28T02:44:54.701Z,93.56
2017-11-28T02:46:05.020Z,93.46
2017-11-28T02:47:15.474Z,93.37
2017-11-28T02:48:25.520Z,93.46
2017-11-28T02:49:35.500Z,93.27
2017-11-28T02:50:45.497Z,93.65
2017-11-28T02:51:55.840Z,93.37
2017-11-28T02:53:05.833Z,93.46
2017-11-28T02:54:15.843Z,93.56
2017-11-28T02:55:25.808Z,93.56
2017-11-28T02:56:36.105Z,93.46
2017-11-28T02:57:46.146Z,93.46
2017-11-28T02:58:56.434Z,93.56
2017-11-28T03:00:06.691Z,93.46
2017-11-28T03:01:17.083Z,93.46
2017-11-28T03:02:27.492Z,93.65
2017-11-28T03:03:37.793Z,94.03
2017-11-28T03:04:48.115Z,93.94
2017-11-28T03:05:58.699Z,94.13
2017-11-28T03:07:08.949Z,93.94
2017-11-28T03:08:19.127Z,94.13
2017-11-28T03:09:28.737Z,94.42
2017-11-28T03:10:39.006Z,93.75
2017-11-28T03:11:49.308Z,94.23
2017-11-28T03:12:59.594Z,93.75
2017-11-28T03:14:09.509Z,94.03
2017-11-28T03:15:19.568Z,94.13
2017-11-28T03:16:29.873Z,94.13
2017-11-28T03:17:40.292Z,94.23
2017-11-28T03:18:50.789Z,94.03
2017-11-28T03:20:01.094Z,94.03
2017-11-28T03:21:11.605Z,94.13
2017-11-28T03:22:21.302Z,94.03
2017-11-28T03:23:31.849Z,94.42
2017-11-28T03:24:41.473Z,93.75
2017-11-28T03:25:50.833Z,93.75
2017-11-28T03:27:01.088Z,93.46
2017-11-28T03:28:11.047Z,93.18
2017-11-28T03:29:21.493Z,93.75
2017-11-28T03:30:31.790Z,93.84
2017-11-28T03:31:42.088Z,92.8
2017-11-28T03:32:52.405Z,93.18
2017-11-28T03:34:02.420Z,92.99
2017-11-28T03:35:12.229Z,93.08
2017-11-28T03:36:21.994Z,93.08
2017-11-28T03:37:32.284Z,93.27
2017-11-28T03:38:42.692Z,93.18
2017-11-28T03:39:53.005Z,93.18
2017-11-28T03:41:03.378Z,92.99
2017-11-28T03:42:13.667Z,92.99
2017-11-28T03:43:24.213Z,93.08
2017-11-28T03:44:34.274Z,92.42
2017-11-28T03:45:44.621Z,92.61
2017-11-28T03:46:54.004Z,92.42
2017-11-28T03:48:04.308Z,92.9
2017-11-28T03:49:14.718Z,92.42
2017-11-28T03:50:25.017Z,92.61
2017-11-28T03:51:35.296Z,92.99
2017-11-28T03:52:45.605Z,92.32
2017-11-28T03:53:55.918Z,92.42
2017-11-28T03:55:06.027Z,92.51
2017-11-28T03:56:16.320Z,92.51
2017-11-28T03:57:26.600Z,92.51
2017-11-28T03:58:36.969Z,92.51
2017-11-28T03:59:47.048Z,92.8
2017-11-28T04:00:57.002Z,92.61
2017-11-28T04:02:07.284Z,92.8
2017-11-28T04:03:17.428Z,92.71
2017-11-28T04:04:27.700Z,91.94
2017-11-28T04:05:38.204Z,92.13
2017-11-28T04:06:48.609Z,91.94
2017-11-28T04:07:58.902Z,92.32
2017-11-28T04:09:09.209Z,92.32
2017-11-28T04:10:19.365Z,92.13
2017-11-28T04:11:29.896Z,92.13
2017-11-28T04:12:40.514Z,92.32
2017-11-28T04:13:50.968Z,92.32
2017-11-28T04:15:00.728Z,92.32
2017-11-28T04:16:11.046Z,92.32
2017-11-28T04:17:21.084Z,92.23
2017-11-28T04:18:31.364Z,92.42
2017-11-28T04:19:41.634Z,91.94
2017-11-28T04:20:51.918Z,92.23
2017-11-28T04:22:02.208Z,92.32
2017-11-28T04:23:12.576Z,91.94
2017-11-28T04:24:23.124Z,92.32
2017-11-28T04:25:33.016Z,92.32
2017-11-28T04:26:43.343Z,92.23
2017-11-28T04:27:53.355Z,92.23
2017-11-28T04:29:03.776Z,92.23
2017-11-28T04:30:13.787Z,92.32
2017-11-28T04:31:24.426Z,92.32
2017-11-28T04:32:34.909Z,92.32
2017-11-28T04:33:45.210Z,92.32
2017-11-28T04:34:55.561Z,91.94
2017-11-28T04:36:05.823Z,92.32
2017-11-28T04:37:16.371Z,92.32
2017-11-28T04:38:26.122Z,92.13
2017-11-28T04:39:36.415Z,92.18
2017-11-28T04:40:46.621Z,91.85
2017-11-28T04:41:56.700Z,91.66
2017-11-28T04:43:07.192Z,91.94
2017-11-28T04:44:17.473Z,91.94
2017-11-28T04:45:27.799Z,91.75
2017-11-28T04:46:38.131Z,92.13
2017-11-28T04:47:48.433Z,92.04
2017-11-28T04:48:58.428Z,92.13
2017-11-28T04:50:08.813Z,91.94
2017-11-28T04:51:19.138Z,92.13
2017-11-28T04:52:29.442Z,92.04
2017-11-28T04:53:39.727Z,92.04
2017-11-28T04:54:50.153Z,91.75
2017-11-28T04:55:59.890Z,91.71
2017-11-28T04:57:10.163Z,91.8
2017-11-28T04:58:20.490Z,91.75
2017-11-28T04:59:30.793Z,91.85
2017-11-28T05:00:40.836Z,91.94
2017-11-28T05:01:51.159Z,91.75
2017-11-28T05:03:01.507Z,91.94
2017-11-28T05:04:11.099Z,91.66
2017-11-28T05:05:21.358Z,91.56
2017-11-28T05:06:31.625Z,92.23
2017-11-28T05:07:41.398Z,91.56
2017-11-28T05:08:51.403Z,91.28
2017-11-28T05:10:01.147Z,91.56
2017-11-28T05:11:11.179Z,91.56
2017-11-28T05:12:21.676Z,91.66
2017-11-28T05:13:31.958Z,91.56
2017-11-28T05:14:42.235Z,91.47
2017-11-28T05:15:52.143Z,91.56
2017-11-28T05:17:02.694Z,91.61
2017-11-28T05:18:13.120Z,91.52
2017-11-28T05:19:23.397Z,91.89
2017-11-28T05:20:33.711Z,91.8
2017-11-28T05:21:43.993Z,92.09
2017-11-28T05:22:54.493Z,91.89
2017-11-28T05:24:04.573Z,91.61
2017-11-28T05:25:14.844Z,91.71
2017-11-28T05:26:24.915Z,92.09
2017-11-28T05:27:35.207Z,92.28
2017-11-28T05:28:45.495Z,92.09
2017-11-28T05:29:55.809Z,92.18
2017-11-28T05:31:05.774Z,91.99
2017-11-28T05:32:16.065Z,91.89
2017-11-28T05:33:26.332Z,92.18
2017-11-28T05:34:36.472Z,92.18
2017-11-28T05:35:47.181Z,91.8
2017-11-28T05:36:57.509Z,91.89
2017-11-28T05:38:07.608Z,92.18
2017-11-28T05:39:17.904Z,91.89
2017-11-28T05:40:28.415Z,92.18
2017-11-28T05:41:38.714Z,91.89
2017-11-28T05:42:48.988Z,91.99
2017-11-28T05:43:59.301Z,92.09
2017-11-28T05:45:09.635Z,91.42
2017-11-28T05:46:19.645Z,91.33
2017-11-28T05:47:30.507Z,91.33
2017-11-28T05:48:40.855Z,91.71
2017-11-28T05:49:50.846Z,91.04
2017-11-28T05:51:01.137Z,91.04
2017-11-28T05:52:11.459Z,91.04
2017-11-28T05:53:21.773Z,90.85
2017-11-28T05:54:32.037Z,90.76
2017-11-28T05:55:42.361Z,90.76
2017-11-28T05:56:52.702Z,90.38
2017-11-28T05:58:02.334Z,89.9
2017-11-28T05:59:12.639Z,90.09
2017-11-28T06:00:23.494Z,90
2017-11-28T06:01:33.124Z,89.62
2017-11-28T06:02:43.551Z,89.53
2017-11-28T06:03:53.628Z,89.72
2017-11-28T06:05:03.997Z,89.72
2017-11-28T06:06:14.294Z,89.81
2017-11-28T06:07:24.310Z,89.72
2017-11-28T06:08:34.636Z,89.72
2017-11-28T06:09:44.987Z,89.72
2017-11-28T06:10:55.282Z,89.9
2017-11-28T06:12:05.661Z,89.81
2017-11-28T06:13:16.576Z,89.53
2017-11-28T06:14:26.869Z,90.09
2017-11-28T06:15:37.181Z,89.72
2017-11-28T06:16:47.493Z,89.62
2017-11-28T06:17:57.841Z,89.72
2017-11-28T06:19:08.133Z,90.09
2017-11-28T06:20:18.129Z,89.72
2017-11-28T06:21:28.353Z,89.72
2017-11-28T06:22:38.749Z,89.72
2017-11-28T06:23:49.052Z,89.72
2017-11-28T06:24:59.548Z,89.53
2017-11-28T06:26:09.198Z,89.72
2017-11-28T06:27:19.259Z,89.33
2017-11-28T06:28:29.169Z,89.43
2017-11-28T06:29:39.035Z,89.24
2017-11-28T06:30:49.341Z,89.43
2017-11-28T06:31:59.380Z,89.33
2017-11-28T06:33:09.659Z,89.53
2017-11-28T06:34:19.956Z,89.53
2017-11-28T06:35:30.226Z,88.95
2017-11-28T06:36:39.956Z,89.05
2017-11-28T06:37:50.316Z,89.05
2017-11-28T06:39:00.622Z,88.86
2017-11-28T06:40:10.671Z,88.76
2017-11-28T06:41:21.022Z,88.95
2017-11-28T06:42:31.305Z,88.57
2017-11-28T06:43:41.004Z,88.86
2017-11-28T06:44:51.316Z,88.76
2017-11-28T06:46:01.799Z,88.76
2017-11-28T06:47:12.027Z,88.76
2017-11-28T06:48:22.029Z,88.67
2017-11-28T06:49:32.239Z,88.76
2017-11-28T06:50:42.567Z,88.67
2017-11-28T06:51:52.579Z,89.05
2017-11-28T06:53:02.586Z,88.86
2017-11-28T06:54:12.875Z,89.05
2017-11-28T06:55:23.136Z,88.95
2017-11-28T06:56:33.473Z,88.76
2017-11-28T06:57:43.410Z,88.95
2017-11-28T06:58:53.208Z,88.95
2017-11-28T07:00:03.135Z,88.76
2017-11-28T07:01:13.674Z,88.95
2017-11-28T07:02:23.607Z,88.95
2017-11-28T07:03:33.804Z,88.95
2017-11-28T07:04:43.838Z,88.86
2017-11-28T07:05:54.134Z,88.95
2017-11-28T07:07:04.409Z,88.86
2017-11-28T07:08:14.736Z,89.05
2017-11-28T07:09:25.077Z,89.14
2017-11-28T07:10:34.858Z,89.24
2017-11-28T07:11:45.078Z,88.95
2017-11-28T07:12:55.357Z,89.05
2017-11-28T07:14:05.356Z,88.57
2017-11-28T07:15:15.726Z,88.57
2017-11-28T07:16:26.084Z,88.76
2017-11-28T07:17:36.143Z,88.67
2017-11-28T07:18:46.538Z,88.86
2017-11-28T07:19:56.529Z,88.39
2017-11-28T07:21:06.660Z,88.29
2017-11-28T07:22:17.288Z,88.39
2017-11-28T07:23:27.619Z,88.29
2017-11-28T07:24:37.432Z,88.39
2017-11-28T07:25:47.734Z,88.39
2017-11-28T07:26:58.021Z,88.2
2017-11-28T07:28:08.392Z,88.29
2017-11-28T07:29:18.691Z,88.29
2017-11-28T07:30:28.367Z,88.24
2017-11-28T07:31:38.713Z,88.01
2017-11-28T07:32:49.029Z,88.1
2017-11-28T07:33:59.566Z,88.24
2017-11-28T07:35:09.861Z,88.01
2017-11-28T07:36:20.333Z,88.1
2017-11-28T07:37:30.673Z,88.01
2017-11-28T07:38:41.025Z,88.39
2017-11-28T07:39:51.387Z,88.43
2017-11-28T07:41:01.701Z,88.39
2017-11-28T07:42:12.017Z,88.48
2017-11-28T07:43:22.309Z,88.24
2017-11-28T07:44:32.352Z,88.24
2017-11-28T07:45:42.365Z,88.2
2017-11-28T07:46:53.036Z,88.34
2017-11-28T07:48:03.426Z,88.29
2017-11-28T07:49:13.742Z,88.57
2017-11-28T07:50:23.792Z,88.53
2017-11-28T07:51:34.174Z,88.29
2017-11-28T07:52:44.229Z,88.1
2017-11-28T07:53:54.225Z,88.39
2017-11-28T07:55:04.812Z,88.2
2017-11-28T07:56:15.135Z,88.1
2017-11-28T07:57:25.447Z,88.2
2017-11-28T07:58:35.520Z,88.2
2017-11-28T07:59:45.823Z,88.39
2017-11-28T08:00:56.064Z,88.81
2017-11-28T08:02:06.235Z,88.9
2017-11-28T08:03:16.520Z,88.62
2017-11-28T08:04:26.806Z,88.62
2017-11-28T08:05:36.828Z,88.62
2017-11-28T08:06:46.857Z,88.9
2017-11-28T08:07:57.363Z,88.9
2017-11-28T08:09:07.294Z,88.9
2017-11-28T08:10:17.082Z,88.81
2017-11-28T08:11:27.374Z,88.9
2017-11-28T08:12:37.692Z,88.81
2017-11-28T08:13:47.983Z,88.43
2017-11-28T08:14:57.905Z,88.53
2017-11-28T08:16:08.482Z,88.9
2017-11-28T08:17:18.817Z,88.34
2017-11-28T08:18:28.836Z,88.81
2017-11-28T08:19:39.145Z,88.62
2017-11-28T08:20:49.735Z,88.9
2017-11-28T08:21:59.808Z,88.71
2017-11-28T08:23:10.176Z,88.9
2017-11-28T08:24:20.521Z,88.62
2017-11-28T08:25:30.787Z,88.62
2017-11-28T08:26:40.787Z,88.81
2017-11-28T08:27:51.078Z,88.81
2017-11-28T08:29:01.438Z,88.62
2017-11-28T08:30:11.708Z,88.81
2017-11-28T08:31:21.724Z,89
2017-11-28T08:32:32.045Z,89.09
2017-11-28T08:33:42.323Z,88.9
2017-11-28T08:34:52.616Z,89
2017-11-28T08:36:02.968Z,89.28
2017-11-28T08:37:13.297Z,89.09
2017-11-28T08:38:23.569Z,89.09
2017-11-28T08:39:33.886Z,89
2017-11-28T08:40:43.936Z,88.62
2017-11-28T08:41:53.949Z,89
2017-11-28T08:43:04.462Z,89
2017-11-28T08:44:14.843Z,89
2017-11-28T08:45:25.223Z,88.9
2017-11-28T08:46:35.586Z,89.09
2017-11-28T08:47:45.934Z,88.71
2017-11-28T08:48:56.316Z,89
2017-11-28T08:50:06.476Z,89.09
2017-11-28T08:51:16.617Z,89.28
2017-11-28T08:52:26.886Z,88.62
2017-11-28T08:53:36.917Z,88.71
2017-11-28T08:54:47.004Z,89.09
2017-11-28T08:55:57.498Z,88.9
2017-11-28T08:57:07.701Z,88.81
2017-11-28T08:58:18.018Z,89.09
2017-11-28T08:59:27.930Z,88.9
2017-11-28T09:00:38.443Z,89.09
2017-11-28T09:01:48.804Z,89.09
2017-11-28T09:02:59.122Z,89
2017-11-28T09:04:09.145Z,88.71
2017-11-28T09:05:19.589Z,89
2017-11-28T09:06:29.634Z,89.19
2017-11-28T09:07:39.693Z,89
2017-11-28T09:08:49.864Z,89
2017-11-28T09:10:00.137Z,89
2017-11-28T09:11:10.285Z,88.71
2017-11-28T09:12:20.520Z,89
2017-11-28T09:13:30.571Z,88.81
2017-11-28T09:14:40.558Z,88.71
2017-11-28T09:15:50.896Z,88.81
2017-11-28T09:17:01.001Z,88.15
2017-11-28T09:18:11.201Z,88.15
2017-11-28T09:19:21.258Z,88.24
2017-11-28T09:20:31.264Z,88.24
2017-11-28T09:21:41.553Z,88.34
2017-11-28T09:22:51.882Z,88.43
2017-11-28T09:24:01.954Z,88.24
2017-11-28T09:25:12.279Z,88.05
2017-11-28T09:26:22.652Z,88.24
2017-11-28T09:27:32.944Z,88.19
2017-11-28T09:28:43.243Z,88.09
2017-11-28T09:29:53.283Z,87.9
2017-11-28T09:31:03.522Z,87.71
2017-11-28T09:32:13.594Z,87.9
2017-11-28T09:33:23.624Z,87.81
2017-11-28T09:34:33.803Z,87.9
2017-11-28T09:35:43.524Z,87.81
2017-11-28T09:36:53.850Z,88.09
2017-11-28T09:38:04.242Z,87.71
2017-11-28T09:39:14.272Z,88
2017-11-28T09:40:24.574Z,87.9
2017-11-28T09:41:34.855Z,87.71
2017-11-28T09:42:44.989Z,87.62
2017-11-28T09:43:55.281Z,88
2017-11-28T09:45:05.377Z,87.62
2017-11-28T09:46:15.683Z,87.62
2017-11-28T09:47:26.272Z,87.71
2017-11-28T09:48:36.925Z,87.81
2017-11-28T09:49:46.973Z,87.81
2017-11-28T09:50:57.261Z,87.81
2017-11-28T09:52:07.546Z,87.81
2017-11-28T09:53:17.576Z,87.81
2017-11-28T09:54:27.911Z,87.9
2017-11-28T09:55:38.261Z,87.81
2017-11-28T09:56:48.563Z,87.9
2017-11-28T09:57:58.873Z,88
2017-11-28T09:59:09.205Z,87.81
2017-11-28T10:00:19.050Z,87.71
2017-11-28T10:01:29.350Z,88.09
2017-11-28T10:02:39.664Z,88
2017-11-28T10:03:49.963Z,87.9
2017-11-28T10:05:00.284Z,87.52
2017-11-28T10:06:10.759Z,87.43
2017-11-28T10:07:21.082Z,87.43
2017-11-28T10:08:31.414Z,87.43
2017-11-28T10:09:41.436Z,86.67
2017-11-28T10:10:51.969Z,86.67
2017-11-28T10:12:02.056Z,86.95
2017-11-28T10:13:12.513Z,87.05
2017-11-28T10:14:22.803Z,87.05
2017-11-28T10:15:33.072Z,86.86
2017-11-28T10:16:43.350Z,86.76
2017-11-28T10:17:53.653Z,86.29
2017-11-28T10:19:03.958Z,86.1
2017-11-28T10:20:14.471Z,86
2017-11-28T10:21:24.557Z,85.43
2017-11-28T10:22:34.845Z,85.24
2017-11-28T10:23:45.204Z,84.95
2017-11-28T10:24:55.779Z,84.77
2017-11-28T10:26:06.122Z,84.67
2017-11-28T10:27:16.437Z,84.29
2017-11-28T10:28:26.205Z,83.95
2017-11-28T10:29:36.239Z,83.58
2017-11-28T10:30:46.570Z,83.04
2017-11-28T10:31:56.867Z,82.19
2017-11-28T10:33:06.869Z,81.52
2017-11-28T10:34:17.155Z,82.19
2017-11-28T10:35:27.511Z,81.18
2017-11-28T10:36:37.872Z,80.99
2017-11-28T10:37:48.175Z,80.8
2017-11-28T10:38:58.052Z,80.52
2017-11-28T10:40:08.340Z,79.75
2017-11-28T10:41:18.889Z,79.85
2017-11-28T10:42:29.230Z,79.09
2017-11-28T10:43:39.537Z,79.09
2017-11-28T10:44:49.948Z,78.46
2017-11-28T10:46:00.290Z,75.79
2017-11-28T10:47:10.640Z,76.75
2017-11-28T10:48:20.548Z,77.03
2017-11-28T10:49:30.851Z,76.08
2017-11-28T10:50:41.257Z,74.75
2017-11-28T10:51:51.536Z,74.5
2017-11-28T10:53:01.967Z,73.87
2017-11-28T10:54:12.246Z,74.01
2017-11-28T10:55:22.536Z,72.89
2017-11-28T10:56:32.865Z,72.8
2017-11-28T10:57:42.791Z,72.99
2017-11-28T10:58:53.169Z,72.51
2017-11-28T11:00:03.479Z,70.79
2017-11-28T11:01:13.769Z,70
2017-11-28T11:02:24.110Z,69.23
2017-11-28T11:03:34.491Z,69.62
2017-11-28T11:04:44.512Z,69.2
2017-11-28T11:05:54.576Z,69.2
2017-11-28T11:07:04.888Z,69.83
2017-11-28T11:08:15.524Z,69.17
2017-11-28T11:09:25.554Z,69.23
2017-11-28T11:10:35.854Z,70.47
2017-11-28T11:11:46.225Z,70.65
2017-11-28T11:12:56.301Z,70.43
2017-11-28T11:14:06.588Z,70.62
2017-11-28T11:15:16.483Z,70.43
2017-11-28T11:16:27.357Z,71.28
2017-11-28T11:17:40.802Z,71.15
2017-11-28T11:18:52.557Z,71.44
2017-11-28T11:20:03.516Z,72.11
2017-11-28T11:21:13.842Z,72.11
2017-11-28T11:22:24.368Z,72.77
2017-11-28T11:23:35.172Z,72.39
2017-11-28T11:24:45.945Z,73.06
2017-11-28T11:25:58.184Z,72.96
2017-11-28T11:27:10.127Z,72.96
2017-11-28T11:28:20.680Z,72.86
2017-11-28T11:29:31.208Z,73.53
2017-11-28T11:30:41.642Z,73.44
2017-11-28T11:31:53.114Z,73.53
2017-11-28T11:33:03.578Z,73.06
2017-11-28T11:34:14.005Z,73.34
2017-11-28T11:35:25.098Z,73.25
2017-11-28T11:36:37.246Z,72.86
2017-11-28T11:37:47.615Z,72.67
2017-11-28T11:38:57.942Z,72.58
2017-11-28T11:40:08.444Z,71.86
2017-11-28T11:41:18.824Z,71.7
2017-11-28T11:42:29.149Z,71.42
2017-11-28T11:43:40.126Z,70.31
2017-11-28T11:44:51.469Z,70.53
2017-11-28T11:46:01.794Z,69.9
2017-11-28T11:47:12.215Z,66.85
2017-11-28T11:48:22.831Z,66.66
2017-11-28T11:49:33.449Z,67.27
2017-11-28T11:50:43.723Z,67.55
2017-11-28T11:51:53.856Z,66.35
2017-11-28T11:53:04.160Z,66.72
2017-11-28T11:54:14.592Z,66.88
2017-11-28T11:55:24.913Z,65.45
2017-11-28T11:56:35.200Z,65.74
2017-11-28T11:58:00.156Z,66.18
2017-11-28T11:59:10.481Z,65.89
2017-11-28T12:00:21.070Z,65.67
2017-11-28T12:01:31.153Z,66.44
2017-11-28T12:02:41.432Z,66.78
2017-11-28T12:04:23.686Z,67.35
2017-11-28T12:05:34.048Z,68.12
2017-11-28T12:06:43.950Z,67.61
2017-11-28T12:07:54.505Z,68.08
2017-11-28T12:09:04.547Z,68.65
2017-11-28T12:10:14.837Z,68.65
2017-11-28T12:11:25.186Z,69.19
2017-11-28T12:12:35.509Z,68.9
2017-11-28T12:13:45.609Z,69.19
2017-11-28T12:14:55.892Z,69.67
2017-11-28T12:16:05.988Z,69.19
2017-11-28T12:17:16.293Z,69.95
2017-11-28T12:18:26.379Z,69.57
2017-11-28T12:19:36.658Z,69.67
2017-11-28T12:20:46.951Z,69.57
2017-11-28T12:21:56.983Z,70.24
2017-11-28T12:23:07.279Z,70.62
2017-11-28T12:24:17.559Z,70.33
2017-11-28T12:25:28.099Z,69.95
2017-11-28T12:26:38.144Z,69.76
2017-11-28T12:27:48.567Z,69.57
2017-11-28T12:28:58.898Z,70.33
2017-11-28T12:30:09.515Z,69.67
2017-11-28T12:31:34.141Z,69.57
2017-11-28T12:32:47.076Z,70.24
2017-11-28T12:33:58.483Z,69.95
2017-11-28T12:35:09.119Z,70.62
2017-11-28T12:36:19.441Z,70.62
2017-11-28T12:37:29.263Z,70.52
2017-11-28T12:38:39.723Z,70.81
2017-11-28T12:39:50.306Z,70.43
2017-11-28T12:41:00.965Z,70.05
2017-11-28T12:42:11.301Z,69.57
2017-11-28T12:43:21.899Z,70.24
2017-11-28T12:44:33.262Z,70.33
2017-11-28T12:45:43.792Z,70.62
2017-11-28T12:46:54.018Z,70.43
2017-11-28T12:48:05.259Z,70.52
2017-11-28T12:49:16.439Z,70.9
2017-11-28T12:50:26.929Z,70.72
2017-11-28T12:51:38.040Z,70.72
2017-11-28T12:52:48.591Z,70.72
2017-11-28T12:53:58.507Z,70.81
2017-11-28T12:55:08.877Z,70.43
2017-11-28T12:56:19.185Z,70.24
2017-11-28T12:57:28.844Z,70.81
2017-11-28T12:58:38.957Z,69.95
2017-11-28T12:59:50.133Z,70.72
2017-11-28T13:01:00.390Z,70.72
2017-11-28T13:02:11.214Z,70.81
2017-11-28T13:03:22.127Z,70.9
2017-11-28T13:04:32.680Z,71.28
2017-11-28T13:05:43.175Z,70.9
2017-11-28T13:06:53.437Z,71
2017-11-28T13:08:04.424Z,70.81
2017-11-28T13:09:14.988Z,71.19
2017-11-28T13:10:25.915Z,71.57
2017-11-28T13:11:35.886Z,71.47
2017-11-28T13:12:47.070Z,71.28
2017-11-28T13:13:57.476Z,71.67
2017-11-28T13:15:08.037Z,71.44
2017-11-28T13:16:18.615Z,72.3
2017-11-28T13:17:28.929Z,72.01
2017-11-28T13:18:39.344Z,72.01
2017-11-28T13:19:50.148Z,72.01
2017-11-28T13:21:00.738Z,71.91
2017-11-28T13:22:11.289Z,72.11
2017-11-28T13:23:22.017Z,71.91
2017-11-28T13:24:32.505Z,72.3
2017-11-28T13:25:42.844Z,72.58
2017-11-28T13:26:52.677Z,72.77
2017-11-28T13:28:02.718Z,72.58
2017-11-28T13:29:13.229Z,72.49
2017-11-28T13:30:23.646Z,72.58
2017-11-28T13:31:34.187Z,72.39
2017-11-28T13:32:44.687Z,72.49
2017-11-28T13:33:55.002Z,72.42
2017-11-28T13:35:05.704Z,72.33
2017-11-28T13:36:16.018Z,71.95
2017-11-28T13:37:26.773Z,72.11
2017-11-28T13:38:37.941Z,72.01
2017-11-28T13:39:48.264Z,72.24
2017-11-28T13:40:58.601Z,71.95
2017-11-28T13:42:08.746Z,71.95
2017-11-28T13:43:18.889Z,71.95
2017-11-28T13:44:29.239Z,72.52
2017-11-28T13:45:39.852Z,72.05
2017-11-28T13:46:49.961Z,71.95
2017-11-28T13:47:59.804Z,71.95
2017-11-28T13:49:10.098Z,71.95
2017-11-28T13:50:20.261Z,72.05
2017-11-28T13:51:30.844Z,72.2
2017-11-28T13:52:40.884Z,72.14
2017-11-28T13:53:51.261Z,72.11
2017-11-28T13:55:01.629Z,71.91
2017-11-28T13:56:11.951Z,71.82
2017-11-28T13:57:22.071Z,72.01
2017-11-28T13:58:31.723Z,71.91
2017-11-28T13:59:42.016Z,71.72
2017-11-28T14:00:52.326Z,72.3
2017-11-28T14:02:03.298Z,72.86
2017-11-28T14:03:14.071Z,72.58
2017-11-28T14:04:24.389Z,72.96
2017-11-28T14:05:34.710Z,72.77
2017-11-28T14:06:44.935Z,72.74
2017-11-28T14:07:55.029Z,73.06
2017-11-28T14:09:05.814Z,72.74
2017-11-28T14:10:16.323Z,72.96
2017-11-28T14:11:26.659Z,72.96
2017-11-28T14:12:36.993Z,73.15
2017-11-28T14:13:47.477Z,73.11
2017-11-28T14:14:58.054Z,73.4
2017-11-28T14:16:07.712Z,73.21
2017-11-28T14:17:18.652Z,73.49
2017-11-28T14:18:29.988Z,73.21
2017-11-28T14:19:40.086Z,73.69
2017-11-28T14:20:50.566Z,73.4
2017-11-28T14:22:00.645Z,73.69
2017-11-28T14:23:10.624Z,73.49
2017-11-28T14:24:20.969Z,73.69
2017-11-28T14:25:31.517Z,73.88
2017-11-28T14:26:42.043Z,74.16
2017-11-28T14:27:52.355Z,73.69
2017-11-28T14:29:02.985Z,74.16
2017-11-28T14:30:13.317Z,74.07
2017-11-28T14:31:24.047Z,73.4
2017-11-28T14:32:34.433Z,74.07
2017-11-28T14:33:44.552Z,73.4
2017-11-28T14:34:54.855Z,73.49
2017-11-28T14:36:05.267Z,73.88
2017-11-28T14:37:15.534Z,74.07
2017-11-28T14:38:24.954Z,73.78
2017-11-28T14:39:36.502Z,74.07
2017-11-28T14:40:47.034Z,73.97
2017-11-28T14:41:57.474Z,73.97
2017-11-28T14:43:08.094Z,74.35
2017-11-28T14:44:18.529Z,74.16
2017-11-28T14:45:28.580Z,74.44
2017-11-28T14:46:38.908Z,73.78
2017-11-28T14:47:49.740Z,73.97
2017-11-28T14:49:00.029Z,74.26
2017-11-28T14:50:09.987Z,74.16
2017-11-28T14:51:20.545Z,74.35
2017-11-28T14:52:30.981Z,74.54
2017-11-28T14:53:41.525Z,74.54
2017-11-28T14:54:51.405Z,74.26
2017-11-28T14:56:02.020Z,74.26
2017-11-28T14:57:12.657Z,74.26
2017-11-28T14:58:22.962Z,74.35
2017-11-28T14:59:34.074Z,74.35
2017-11-28T15:00:44.837Z,73.97
2017-11-28T15:01:55.447Z,74.44
2017-11-28T15:03:05.846Z,74.82
2017-11-28T15:04:16.682Z,74.73
2017-11-28T15:05:26.958Z,74.82
2017-11-28T15:06:37.634Z,74.82
2017-11-28T15:07:48.434Z,74.98
2017-11-28T15:08:58.775Z,74.82
2017-11-28T15:10:09.445Z,75.02
2017-11-28T15:11:19.365Z,74.92
2017-11-28T15:12:29.683Z,75.3